createdAt,value
2018-04-23T00:00:08.759Z,97.30
2018-04-23T00:02:36.285Z,96.90
2018-04-23T00:05:04.588Z,97.00
2018-04-23T00:07:32.163Z,97.00
2018-04-23T00:09:59.699Z,97.30
2018-04-23T00:12:27.264Z,97.20
2018-04-23T00:14:54.804Z,97.00
2018-04-23T00:17:23.135Z,96.90
2018-04-23T00:19:50.686Z,96.90
2018-04-23T00:22:18.235Z,97.40
2018-04-23T00:24:45.762Z,97.10
2018-04-23T00:27:14.090Z,97.10
2018-04-23T00:29:41.618Z,97.10
2018-04-23T00:32:09.148Z,97.00
2018-04-23T00:34:37.445Z,97.00
2018-04-23T00:37:04.979Z,96.90
2018-04-23T00:39:32.562Z,97.00
2018-04-23T00:42:00.104Z,97.00
2018-04-23T00:44:27.676Z,96.90
2018-04-23T00:46:55.953Z,97.00
2018-04-23T00:49:23.514Z,97.00
2018-04-23T00:51:51.027Z,96.90
2018-04-23T00:54:18.568Z,97.20
2018-04-23T00:56:46.118Z,96.90
2018-04-23T00:59:13.668Z,97.00
2018-04-23T01:01:41.188Z,96.90
2018-04-23T01:04:09.495Z,96.90
2018-04-23T01:06:37.045Z,96.90
2018-04-23T01:09:04.569Z,96.80
2018-04-23T01:11:32.079Z,97.00
2018-04-23T01:13:59.589Z,96.90
2018-04-23T01:16:27.123Z,96.60
2018-04-23T01:18:54.651Z,96.70
2018-04-23T01:21:22.199Z,96.70
2018-04-23T01:23:49.753Z,96.70
2018-04-23T01:26:17.288Z,96.60
2018-04-23T01:28:45.596Z,96.40
2018-04-23T01:31:13.170Z,96.40
2018-04-23T01:33:40.682Z,96.20
2018-04-23T01:36:08.242Z,96.00
2018-04-23T01:38:35.758Z,95.70
2018-04-23T01:41:03.282Z,95.40
2018-04-23T01:43:30.803Z,95.30
2018-04-23T01:45:58.335Z,95.10
2018-04-23T01:48:25.879Z,95.00
2018-04-23T01:50:53.455Z,94.90
2018-04-23T01:53:21.022Z,94.90
2018-04-23T01:55:48.548Z,94.70
2018-04-23T01:58:16.069Z,94.70
2018-04-23T02:00:44.400Z,94.50
2018-04-23T02:03:11.972Z,94.40
2018-04-23T02:05:39.501Z,94.40
2018-04-23T02:08:07.030Z,94.60
2018-04-23T02:10:34.573Z,94.50
2018-04-23T02:13:03.270Z,94.40
2018-04-23T02:15:31.580Z,94.30
2018-04-23T02:17:59.116Z,94.30
2018-04-23T02:20:26.656Z,94.40
2018-04-23T02:22:54.173Z,94.10
2018-04-23T02:25:21.702Z,94.30
2018-04-23T02:27:49.253Z,94.30
2018-04-23T02:30:16.791Z,94.30
2018-04-23T02:32:44.315Z,94.20
2018-04-23T02:35:11.871Z,94.20
2018-04-23T02:37:39.402Z,94.40
2018-04-23T02:40:06.937Z,94.50
2018-04-23T02:42:35.225Z,94.10
2018-04-23T02:45:02.812Z,94.00
2018-04-23T02:47:30.341Z,94.10
2018-04-23T02:49:57.865Z,93.70
2018-04-23T02:52:25.406Z,93.80
2018-04-23T02:54:52.986Z,93.80
2018-04-23T02:57:20.544Z,93.70
2018-04-23T02:59:48.084Z,93.60
2018-04-23T03:02:15.609Z,93.60
2018-04-23T03:04:43.126Z,93.70
2018-04-23T03:07:10.658Z,93.70
2018-04-23T03:09:38.195Z,94.20
2018-04-23T03:12:05.750Z,93.70
2018-04-23T03:14:33.287Z,93.80
2018-04-23T03:17:00.809Z,93.70
2018-04-23T03:19:28.341Z,94.10
2018-04-23T03:21:55.880Z,93.90
2018-04-23T03:24:23.504Z,93.80
2018-04-23T03:26:51.146Z,93.90
2018-04-23T03:29:18.697Z,93.70
2018-04-23T03:31:46.232Z,93.70
2018-04-23T03:34:13.796Z,93.70
2018-04-23T03:36:41.370Z,93.70
2018-04-23T03:39:08.903Z,93.70
2018-04-23T03:41:36.428Z,93.60
2018-04-23T03:44:04.726Z,93.60
2018-04-23T03:46:32.258Z,93.60
2018-04-23T03:48:59.795Z,93.70
2018-04-23T03:51:27.346Z,93.60
2018-04-23T03:53:54.916Z,93.80
2018-04-23T03:56:22.444Z,93.70
2018-04-23T03:58:49.972Z,93.80
2018-04-23T04:01:17.521Z,93.70
2018-04-23T04:03:45.061Z,93.70
2018-04-23T04:06:12.612Z,93.70
2018-04-23T04:08:40.165Z,93.60
2018-04-23T04:11:08.514Z,93.60
2018-04-23T04:13:48.026Z,93.60
2018-04-23T04:16:27.266Z,93.70
2018-04-23T04:18:54.794Z,93.70
2018-04-23T04:21:22.325Z,93.80
2018-04-23T04:23:49.866Z,93.90
2018-04-23T04:26:18.190Z,93.90
2018-04-23T04:28:45.726Z,93.90
2018-04-23T04:31:13.246Z,93.90
2018-04-23T04:33:40.766Z,94.00
2018-04-23T04:36:08.290Z,94.00
2018-04-23T04:38:35.830Z,94.00
2018-04-23T04:41:03.356Z,94.00
2018-04-23T04:43:30.876Z,94.00
2018-04-23T04:45:58.434Z,94.10
2018-04-23T04:48:25.960Z,94.10
2018-04-23T04:50:53.481Z,94.20
2018-04-23T04:53:21.034Z,94.30
2018-04-23T04:55:48.582Z,94.30
2018-04-23T04:58:16.126Z,94.40
2018-04-23T05:00:43.658Z,94.50
2018-04-23T05:03:11.197Z,94.60
2018-04-23T05:05:38.714Z,95.00
2018-04-23T05:08:06.294Z,94.50
2018-04-23T05:10:33.841Z,94.60
2018-04-23T05:13:01.458Z,94.60
2018-04-23T05:15:29.042Z,94.70
2018-04-23T05:17:56.578Z,94.70
2018-04-23T05:20:24.125Z,94.80
2018-04-23T05:22:51.665Z,95.00
2018-04-23T05:25:19.239Z,94.90
2018-04-23T05:27:46.761Z,95.00
2018-04-23T05:30:15.053Z,95.20
2018-04-23T05:32:42.596Z,95.10
2018-04-23T05:35:10.152Z,95.20
2018-04-23T05:37:37.746Z,95.10
2018-04-23T05:40:05.284Z,95.10
2018-04-23T05:42:32.795Z,95.10
2018-04-23T05:45:00.318Z,95.30
2018-04-23T05:47:27.946Z,95.30
2018-04-23T05:49:55.480Z,95.20
2018-04-23T05:52:23.039Z,95.30
2018-04-23T05:54:50.610Z,95.40
2018-04-23T05:57:18.943Z,95.30
2018-04-23T05:59:46.489Z,95.20
2018-04-23T06:02:14.033Z,95.30
2018-04-23T06:04:41.565Z,95.30
2018-04-23T06:07:09.090Z,95.30
2018-04-23T06:09:36.624Z,95.40
2018-04-23T06:12:04.150Z,95.20
2018-04-23T06:14:32.471Z,95.40
2018-04-23T06:17:00.008Z,95.40
2018-04-23T06:19:27.541Z,95.30
2018-04-23T06:21:55.841Z,95.60
2018-04-23T06:24:23.364Z,95.60
2018-04-23T06:26:50.905Z,95.90
2018-04-23T06:29:18.558Z,95.50
2018-04-23T06:31:46.088Z,95.30
2018-04-23T06:34:13.622Z,95.80
2018-04-23T06:36:41.904Z,95.30
2018-04-23T06:39:09.440Z,95.30
2018-04-23T06:41:37.731Z,95.50
2018-04-23T06:44:06.077Z,95.40
2018-04-23T06:46:33.604Z,95.40
2018-04-23T06:49:01.127Z,95.50
2018-04-23T06:51:28.648Z,95.70
2018-04-23T06:53:56.181Z,95.70
2018-04-23T06:56:23.698Z,95.80
2018-04-23T06:58:51.268Z,95.90
2018-04-23T07:01:18.824Z,95.80
2018-04-23T07:03:47.157Z,95.80
2018-04-23T07:06:15.437Z,95.90
2018-04-23T07:08:42.973Z,95.90
2018-04-23T07:11:10.499Z,96.00
2018-04-23T07:13:38.018Z,95.90
2018-04-23T07:16:05.539Z,96.10
2018-04-23T07:18:33.079Z,96.10
2018-04-23T07:21:00.604Z,96.10
2018-04-23T07:23:28.931Z,96.20
2018-04-23T07:25:56.460Z,96.20
2018-04-23T07:28:23.991Z,96.40
2018-04-23T07:30:51.522Z,96.20
2018-04-23T07:33:19.047Z,96.20
2018-04-23T07:35:46.795Z,96.20
2018-04-23T07:38:15.245Z,96.20
2018-04-23T07:40:42.797Z,96.10
2018-04-23T07:43:10.347Z,96.10
2018-04-23T07:45:37.873Z,96.20
2018-04-23T07:48:05.382Z,96.40
2018-04-23T07:50:32.946Z,96.40
2018-04-23T07:53:00.482Z,96.30
2018-04-23T07:55:28.020Z,96.10
2018-04-23T07:57:55.566Z,96.20
2018-04-23T08:00:23.099Z,96.40
2018-04-23T08:02:50.652Z,96.30
2018-04-23T08:05:18.945Z,95.90
2018-04-23T08:07:47.239Z,95.60
2018-04-23T08:10:14.769Z,95.60
2018-04-23T08:12:42.312Z,95.70
2018-04-23T08:15:09.854Z,95.40
2018-04-23T08:17:37.407Z,95.50
2018-04-23T08:20:04.961Z,95.40
2018-04-23T08:22:32.490Z,95.40
2018-04-23T08:25:00.045Z,94.80
2018-04-23T08:27:27.590Z,95.00
2018-04-23T08:29:55.109Z,94.40
2018-04-23T08:32:22.640Z,94.00
2018-04-23T08:34:50.183Z,93.80
2018-04-23T08:37:17.716Z,93.60
2018-04-23T08:39:45.996Z,93.00
2018-04-23T08:42:14.281Z,93.20
2018-04-23T08:44:41.869Z,93.20
2018-04-23T08:47:09.404Z,93.10
2018-04-23T08:49:36.980Z,93.20
2018-04-23T08:52:04.495Z,93.40
2018-04-23T08:54:32.821Z,92.30
2018-04-23T08:57:00.344Z,92.30
2018-04-23T08:59:28.627Z,91.40
2018-04-23T09:01:56.260Z,91.40
2018-04-23T09:04:23.868Z,90.20
2018-04-23T09:06:51.432Z,90.00
2018-04-23T09:09:18.986Z,89.60
2018-04-23T09:11:46.556Z,90.20
2018-04-23T09:14:14.054Z,89.80
2018-04-23T09:16:41.576Z,89.40
2018-04-23T09:19:09.106Z,89.20
2018-04-23T09:21:36.684Z,88.10
2018-04-23T09:24:04.271Z,88.40
2018-04-23T09:26:31.796Z,87.30
2018-04-23T09:28:59.339Z,87.80
2018-04-23T09:31:26.886Z,86.30
2018-04-23T09:33:55.197Z,82.80
2018-04-23T09:36:22.756Z,82.80
2018-04-23T09:38:50.293Z,83.20
2018-04-23T09:41:17.823Z,83.10
2018-04-23T09:43:45.350Z,84.20
2018-04-23T09:46:12.893Z,85.20
2018-04-23T09:48:40.448Z,81.70
2018-04-23T09:51:07.995Z,81.40
2018-04-23T09:53:35.600Z,80.50
2018-04-23T09:56:03.172Z,81.40
2018-04-23T09:58:30.723Z,82.60
2018-04-23T10:00:58.260Z,81.60
2018-04-23T10:03:25.810Z,80.10
2018-04-23T10:05:53.337Z,78.60
2018-04-23T10:08:20.864Z,80.10
2018-04-23T10:10:48.430Z,79.60
2018-04-23T10:13:16.715Z,73.80
2018-04-23T10:15:44.995Z,74.50
2018-04-23T10:18:13.287Z,71.50
2018-04-23T10:20:40.819Z,71.50
2018-04-23T10:23:08.349Z,70.80
2018-04-23T10:25:35.881Z,70.60
2018-04-23T10:28:03.410Z,70.70
2018-04-23T10:30:30.932Z,70.30
2018-04-23T10:32:58.468Z,69.50
2018-04-23T10:35:26.058Z,71.20
2018-04-23T10:37:53.658Z,71.50
2018-04-23T10:40:21.166Z,71.40
2018-04-23T10:42:48.704Z,71.30
2018-04-23T10:45:16.226Z,72.50
2018-04-23T10:47:43.746Z,70.80
2018-04-23T10:50:11.370Z,70.60
2018-04-23T10:52:38.900Z,67.50
2018-04-23T10:55:07.186Z,68.60
2018-04-23T10:57:34.703Z,68.60
2018-04-23T11:00:02.228Z,69.20
2018-04-23T11:02:29.747Z,69.20
2018-04-23T11:04:57.290Z,69.60
2018-04-23T11:07:25.585Z,69.70
2018-04-23T11:09:53.126Z,69.70
2018-04-23T11:12:20.688Z,69.90
2018-04-23T11:14:49.014Z,69.70
2018-04-23T11:17:16.535Z,69.70
2018-04-23T11:19:44.065Z,69.90
2018-04-23T11:22:11.582Z,68.90
2018-04-23T11:24:39.124Z,67.70
2018-04-23T11:27:06.647Z,68.00
2018-04-23T11:29:34.174Z,69.60
2018-04-23T11:32:01.697Z,68.20
2018-04-23T11:34:29.240Z,68.30
2018-04-23T11:36:57.523Z,66.90
2018-04-23T11:39:25.050Z,66.90
2018-04-23T11:41:52.569Z,66.60
2018-04-23T11:44:20.113Z,67.20
2018-04-23T11:46:47.654Z,65.40
2018-04-23T11:49:15.223Z,62.40
2018-04-23T11:51:42.762Z,63.60
2018-04-23T11:54:10.301Z,62.00
2018-04-23T11:56:37.866Z,62.80
2018-04-23T11:59:05.415Z,61.70
2018-04-23T12:01:32.948Z,62.80
2018-04-23T12:04:00.475Z,62.50
2018-04-23T12:06:28.047Z,63.80
2018-04-23T12:08:55.598Z,61.40
2018-04-23T12:11:23.151Z,62.20
2018-04-23T12:13:50.694Z,63.10
2018-04-23T12:16:19.002Z,62.20
2018-04-23T12:18:46.539Z,62.20
2018-04-23T12:21:14.073Z,61.60
2018-04-23T12:23:41.626Z,63.20
2018-04-23T12:26:09.187Z,63.70
2018-04-23T12:28:36.708Z,63.90
2018-04-23T12:31:04.241Z,60.60
2018-04-23T12:33:31.781Z,60.30
2018-04-23T12:35:59.305Z,61.30
2018-04-23T12:38:26.834Z,61.20
2018-04-23T12:40:54.354Z,58.40
2018-04-23T12:43:21.875Z,58.80
2018-04-23T12:45:49.415Z,58.90
2018-04-23T12:48:16.955Z,58.40
2018-04-23T12:50:44.493Z,58.10
2018-04-23T12:53:12.810Z,58.60
2018-04-23T12:55:40.377Z,58.50
2018-04-23T12:58:07.900Z,59.20
2018-04-23T13:00:35.440Z,59.40
2018-04-23T13:03:03.010Z,60.10
2018-04-23T13:05:31.305Z,59.30
2018-04-23T13:07:58.864Z,59.20
2018-04-23T13:10:26.422Z,59.20
2018-04-23T13:12:53.939Z,59.70
2018-04-23T13:15:21.498Z,60.50
2018-04-23T13:17:49.816Z,59.50
2018-04-23T13:20:17.380Z,59.40
2018-04-23T13:22:44.926Z,58.20
2018-04-23T13:25:12.472Z,57.50
2018-04-23T13:27:40.010Z,56.00
2018-04-23T13:30:08.418Z,54.60
2018-04-23T13:32:35.938Z,54.40
2018-04-23T13:35:03.467Z,54.30
2018-04-23T13:37:31.044Z,54.90
2018-04-23T13:39:58.618Z,55.20
2018-04-23T13:42:26.194Z,55.00
2018-04-23T13:44:53.681Z,55.90
2018-04-23T13:47:21.240Z,53.40
2018-04-23T13:49:48.821Z,52.70
2018-04-23T13:52:16.346Z,52.90
2018-04-23T13:54:43.886Z,52.40
2018-04-23T13:57:12.188Z,51.30
2018-04-23T13:59:39.714Z,51.20
2018-04-23T14:02:07.232Z,49.90
2018-04-23T14:04:34.767Z,48.90
2018-04-23T14:07:02.368Z,50.00
2018-04-23T14:09:29.905Z,51.80
2018-04-23T14:11:57.443Z,53.10
2018-04-23T14:14:24.977Z,53.70
2018-04-23T14:16:53.253Z,53.40
2018-04-23T14:19:21.589Z,53.50
2018-04-23T14:21:49.128Z,53.40
2018-04-23T14:24:16.691Z,54.60
2018-04-23T14:26:44.293Z,55.30
2018-04-23T14:29:12.586Z,54.80
2018-04-23T14:31:40.422Z,54.70
2018-04-23T14:34:07.958Z,55.10
2018-04-23T14:36:35.523Z,53.60
2018-04-23T14:39:03.086Z,54.10
2018-04-23T14:41:30.622Z,55.10
2018-04-23T14:43:58.931Z,56.70
2018-04-23T14:46:26.466Z,56.70
2018-04-23T14:48:53.994Z,56.60
2018-04-23T14:51:21.508Z,56.90
2018-04-23T14:53:49.023Z,57.50
2018-04-23T14:56:16.533Z,58.30
2018-04-23T14:58:44.108Z,57.50
2018-04-23T15:01:12.402Z,55.10
2018-04-23T15:03:39.937Z,54.50
2018-04-23T15:06:08.237Z,55.70
2018-04-23T15:08:35.765Z,55.70
2018-04-23T15:11:04.056Z,55.80
2018-04-23T15:13:32.356Z,56.60
2018-04-23T15:15:59.984Z,56.50
2018-04-23T15:18:28.287Z,56.10
2018-04-23T15:20:55.834Z,56.00
2018-04-23T15:23:23.372Z,56.00
2018-04-23T15:25:51.669Z,56.60
2018-04-23T15:28:19.230Z,56.60
2018-04-23T15:30:46.777Z,56.30
2018-04-23T15:33:14.317Z,57.00
2018-04-23T15:35:41.987Z,57.20
2018-04-23T15:38:09.521Z,57.20
2018-04-23T15:40:37.818Z,55.50
2018-04-23T15:43:05.463Z,55.50
2018-04-23T15:45:32.973Z,55.50
2018-04-23T15:48:00.501Z,55.70
2018-04-23T15:50:28.077Z,56.30
2018-04-23T15:52:56.386Z,56.40
2018-04-23T15:55:23.913Z,56.40
2018-04-23T15:57:51.441Z,56.70
2018-04-23T16:00:18.973Z,57.40
2018-04-23T16:02:46.497Z,57.90
2018-04-23T16:05:14.031Z,57.90
2018-04-23T16:07:42.322Z,58.90
2018-04-23T16:10:09.876Z,58.90
2018-04-23T16:12:38.190Z,57.30
2018-04-23T16:15:05.754Z,57.30
2018-04-23T16:17:33.281Z,57.30
2018-04-23T16:20:00.802Z,58.10
2018-04-23T16:22:28.428Z,58.30
2018-04-23T16:24:55.949Z,58.90
2018-04-23T16:27:23.485Z,59.40
2018-04-23T16:29:51.026Z,59.20
2018-04-23T16:32:18.562Z,59.90
2018-04-23T16:34:46.095Z,60.90
2018-04-23T16:37:13.613Z,61.90
2018-04-23T16:39:41.152Z,61.90
2018-04-23T16:42:08.662Z,62.30
2018-04-23T16:44:39.417Z,62.30
2018-04-23T16:47:04.502Z,64.00
2018-04-23T16:49:32.030Z,63.90
2018-04-23T16:51:59.590Z,62.80
2018-04-23T16:54:27.898Z,62.60
2018-04-23T16:56:55.436Z,61.90
2018-04-23T16:59:23.766Z,62.20
2018-04-23T17:01:51.461Z,62.20
2018-04-23T17:04:18.997Z,62.40
2018-04-23T17:06:46.522Z,63.10
2018-04-23T17:09:14.096Z,63.80
2018-04-23T17:11:41.648Z,63.80
2018-04-23T17:14:09.177Z,65.00
2018-04-23T17:16:37.564Z,65.50
2018-04-23T17:19:05.087Z,65.50
2018-04-23T17:21:32.666Z,66.40
2018-04-23T17:24:00.217Z,66.20
2018-04-23T17:26:28.557Z,66.60
2018-04-23T17:28:56.103Z,66.50
2018-04-23T17:31:23.654Z,67.20
2018-04-23T17:33:51.201Z,67.70
2018-04-23T17:36:18.792Z,67.80
2018-04-23T17:38:46.302Z,67.90
2018-04-23T17:41:13.873Z,67.80
2018-04-23T17:43:41.401Z,67.70
2018-04-23T17:46:08.981Z,67.50
2018-04-23T17:48:36.573Z,66.00
2018-04-23T17:51:04.109Z,66.30
2018-04-23T17:53:31.654Z,66.60
2018-04-23T17:55:59.209Z,67.30
2018-04-23T17:58:27.597Z,66.30
2018-04-23T18:00:55.212Z,66.30
2018-04-23T18:03:22.732Z,65.70
2018-04-23T18:05:50.314Z,66.30
2018-04-23T18:08:17.874Z,66.50
2018-04-23T18:10:45.402Z,66.80
2018-04-23T18:13:12.969Z,67.60
2018-04-23T18:15:40.530Z,67.90
2018-04-23T18:18:08.849Z,68.10
2018-04-23T18:20:36.403Z,68.00
2018-04-23T18:23:03.964Z,67.90
2018-04-23T18:25:31.609Z,68.10
2018-04-23T18:27:59.168Z,68.30
2018-04-23T18:30:28.422Z,68.60
2018-04-23T18:32:56.986Z,68.60
2018-04-23T18:35:25.340Z,70.40
2018-04-23T18:37:52.912Z,70.10
2018-04-23T18:40:20.569Z,71.40
2018-04-23T18:42:48.148Z,73.90
2018-04-23T18:45:15.790Z,74.60
2018-04-23T18:47:43.662Z,75.90
2018-04-23T18:50:11.240Z,76.70
2018-04-23T18:52:39.656Z,78.10
2018-04-23T18:55:07.274Z,78.10
2018-04-23T18:57:35.180Z,78.20
2018-04-23T19:00:02.903Z,78.70
2018-04-23T19:02:31.256Z,79.70
2018-04-23T19:05:00.421Z,79.70
2018-04-23T19:07:28.003Z,79.70
2018-04-23T19:09:55.783Z,80.30
2018-04-23T19:12:23.355Z,80.60
2018-04-23T19:14:51.013Z,80.20
2018-04-23T19:17:21.214Z,81.20
2018-04-23T19:19:48.810Z,81.20
2018-04-23T19:22:16.397Z,81.00
2018-04-23T19:24:43.987Z,81.20
2018-04-23T19:27:11.565Z,81.40
2018-04-23T19:29:39.999Z,81.40
2018-04-23T19:32:07.592Z,81.80
2018-04-23T19:34:36.361Z,81.80
2018-04-23T19:37:04.437Z,82.10
2018-04-23T19:39:32.260Z,81.80
2018-04-23T19:41:59.844Z,82.00
2018-04-23T19:44:28.221Z,82.10
2018-04-23T19:46:55.790Z,82.00
2018-04-23T19:49:23.363Z,82.30
2018-04-23T19:51:51.399Z,82.00
2018-04-23T19:54:18.971Z,81.90
2018-04-23T19:56:47.043Z,81.90
2018-04-23T19:59:14.624Z,82.30
2018-04-23T20:01:42.184Z,82.20
2018-04-23T20:04:10.347Z,82.10
2018-04-23T20:06:37.992Z,81.40
2018-04-23T20:09:08.136Z,82.00
2018-04-23T20:11:35.712Z,82.20
2018-04-23T20:14:03.881Z,82.30
2018-04-23T20:16:31.450Z,82.40
2018-04-23T20:19:00.244Z,82.70
2018-04-23T20:21:27.852Z,82.70
2018-04-23T20:23:55.420Z,82.40
2018-04-23T20:26:23.010Z,81.90
2018-04-23T20:28:51.176Z,82.50
2018-04-23T20:31:18.784Z,82.40
2018-04-23T20:33:46.347Z,82.40
2018-04-23T20:36:13.907Z,82.20
2018-04-23T20:38:41.497Z,82.10
2018-04-23T20:41:09.051Z,82.80
2018-04-23T20:43:36.615Z,82.80
2018-04-23T20:46:04.187Z,82.80
2018-04-23T20:48:31.752Z,82.40
2018-04-23T20:50:59.326Z,81.80
2018-04-23T20:53:27.029Z,82.00
2018-04-23T20:55:54.675Z,81.90
2018-04-23T20:58:22.158Z,82.00
2018-04-23T21:00:49.689Z,81.00
2018-04-23T21:03:17.224Z,80.40
2018-04-23T21:05:44.755Z,80.90
2018-04-23T21:08:12.284Z,79.10
2018-04-23T21:10:39.821Z,79.30
2018-04-23T21:13:08.231Z,79.10
2018-04-23T21:15:35.891Z,79.10
2018-04-23T21:18:03.436Z,79.10
2018-04-23T21:20:31.004Z,79.20
2018-04-23T21:22:58.539Z,79.30
2018-04-23T21:25:26.832Z,79.60
2018-04-23T21:27:54.396Z,79.50
2018-04-23T21:30:21.935Z,79.40
2018-04-23T21:32:50.270Z,80.00
2018-04-23T21:35:17.802Z,80.00
2018-04-23T21:37:45.403Z,79.90
2018-04-23T21:40:12.881Z,79.90
2018-04-23T21:42:41.167Z,80.60
2018-04-23T21:45:08.720Z,80.60
2018-04-23T21:47:37.009Z,80.60
2018-04-23T21:50:04.584Z,80.40
2018-04-23T21:52:32.123Z,80.40
2018-04-23T21:54:59.784Z,80.90
2018-04-23T21:57:28.081Z,81.10
2018-04-23T21:59:55.644Z,81.00
2018-04-23T22:02:23.162Z,81.20
2018-04-23T22:04:51.455Z,81.60
2018-04-23T22:07:18.993Z,81.50
2018-04-23T22:09:46.538Z,81.50
2018-04-23T22:12:14.062Z,81.70
2018-04-23T22:14:41.599Z,81.70
2018-04-23T22:17:09.125Z,81.50
2018-04-23T22:19:37.410Z,81.70
2018-04-23T22:22:04.946Z,81.70
2018-04-23T22:24:33.992Z,82.00
2018-04-23T22:27:01.522Z,81.90
2018-04-23T22:29:29.073Z,82.00
2018-04-23T22:31:57.372Z,81.80
2018-04-23T22:34:24.898Z,81.80
2018-04-23T22:36:52.446Z,81.80
2018-04-23T22:39:19.956Z,81.60
2018-04-23T22:41:47.464Z,81.70
2018-04-23T22:44:15.766Z,81.20
2018-04-23T22:46:43.271Z,81.20
2018-04-23T22:49:10.787Z,81.30
2018-04-23T22:51:39.091Z,81.20
2018-04-23T22:54:06.681Z,81.10
2018-04-23T22:56:34.217Z,81.00
2018-04-23T22:59:01.743Z,81.50
2018-04-23T23:01:29.291Z,81.70
2018-04-23T23:03:57.571Z,81.50
2018-04-23T23:06:25.845Z,81.30
2018-04-23T23:08:54.145Z,81.40
2018-04-23T23:11:21.672Z,81.40
2018-04-23T23:13:49.198Z,81.40
2018-04-23T23:16:16.722Z,81.40
2018-04-23T23:18:44.282Z,81.70
2018-04-23T23:21:11.802Z,81.60
2018-04-23T23:23:39.346Z,81.70
2018-04-23T23:26:06.898Z,81.50
2018-04-23T23:28:34.416Z,82.40
2018-04-23T23:31:01.929Z,81.80
2018-04-23T23:33:29.467Z,82.00
2018-04-23T23:35:56.995Z,82.10
2018-04-23T23:38:24.536Z,81.90
2018-04-23T23:40:52.054Z,81.90
2018-04-23T23:43:19.563Z,82.50
2018-04-23T23:45:47.099Z,82.80
2018-04-23T23:48:14.617Z,82.90
2018-04-23T23:50:42.149Z,82.60
2018-04-23T23:53:09.670Z,82.80
2018-04-23T23:55:37.195Z,82.60
2018-04-23T23:58:04.728Z,83.20
